createdAt,value
2023-03-20T00:02:08.611Z,100222.55
2023-03-20T00:04:37.983Z,100214.01
2023-03-20T00:07:10.663Z,100213.05
2023-03-20T00:09:48.640Z,100209.25
2023-03-20T00:12:18.777Z,100210.02
2023-03-20T00:14:46.781Z,100205.98
2023-03-20T00:17:18.234Z,100207.20
2023-03-20T00:19:55.876Z,100200.56
2023-03-20T00:22:23.910Z,100199.73
2023-03-20T00:24:51.869Z,100199.41
2023-03-20T00:27:37.231Z,100201.43
2023-03-20T00:30:10.217Z,100196.47
2023-03-20T00:32:38.788Z,100196.60
2023-03-20T00:35:24.252Z,100197.15
2023-03-20T00:37:56.324Z,100196.91
2023-03-20T00:40:27.117Z,100190.79
2023-03-20T00:42:58.266Z,100185.70
2023-03-20T00:45:26.450Z,100181.52
2023-03-20T00:47:54.541Z,100178.93
2023-03-20T00:50:24.591Z,100183.58
2023-03-20T00:52:54.124Z,100183.10
2023-03-20T00:55:23.029Z,100181.55
2023-03-20T00:57:55.923Z,100178.74
2023-03-20T01:00:35.473Z,100181.16
2023-03-20T01:03:06.511Z,100180.21
2023-03-20T01:05:35.103Z,100177.98
2023-03-20T01:08:03.493Z,100184.32
2023-03-20T01:10:32.260Z,100180.81
2023-03-20T01:13:00.848Z,100182.13
2023-03-20T01:15:31.404Z,100175.25
2023-03-20T01:17:59.520Z,100171.38
2023-03-20T01:20:33.012Z,100168.30
2023-03-20T01:23:01.287Z,100168.06
2023-03-20T01:25:29.544Z,100168.39
2023-03-20T01:27:58.198Z,100166.41
2023-03-20T01:30:28.823Z,100167.22
2023-03-20T01:33:00.929Z,100168.67
2023-03-20T01:35:31.717Z,100167.86
2023-03-20T01:38:02.907Z,100165.19
2023-03-20T01:40:41.627Z,100167.38
2023-03-20T01:43:15.143Z,100161.23
2023-03-20T01:45:47.524Z,100160.72
2023-03-20T01:48:20.348Z,100161.80
2023-03-20T01:50:48.739Z,100159.60
2023-03-20T01:53:21.478Z,100159.79
2023-03-20T01:55:54.723Z,100162.05
2023-03-20T01:58:37.285Z,100163.60
2023-03-20T02:01:07.810Z,100164.16
2023-03-20T02:03:43.783Z,100170.41
2023-03-20T02:06:38.715Z,100168.58
2023-03-20T02:09:17.315Z,100168.40
2023-03-20T02:11:47.749Z,100166.72
2023-03-20T02:14:19.844Z,100164.37
2023-03-20T02:17:01.151Z,100163.32
2023-03-20T02:19:49.377Z,100166.92
2023-03-20T02:22:49.759Z,100171.79
2023-03-20T02:25:43.711Z,100174.29
2023-03-20T02:28:44.845Z,100170.88
2023-03-20T02:31:34.201Z,100173.84
2023-03-20T02:34:23.878Z,100172.05
2023-03-20T02:37:20.857Z,100171.22
2023-03-20T02:39:59.674Z,100174.94
2023-03-20T02:42:56.181Z,100175.92
2023-03-20T02:45:35.405Z,100168.77
2023-03-20T02:48:18.052Z,100166.91
2023-03-20T02:50:57.788Z,100165.11
2023-03-20T02:53:36.868Z,100160.17
2023-03-20T02:56:27.816Z,100155.54
2023-03-20T02:59:12.826Z,100157.52
2023-03-20T03:07:56.126Z,100142.67
2023-03-20T03:10:27.469Z,100133.14
2023-03-20T03:12:57.830Z,100133.66
2023-03-20T03:15:36.504Z,100130.17
2023-03-20T03:18:12.965Z,100124.89
2023-03-20T03:20:41.534Z,100119.73
2023-03-20T03:23:11.742Z,100114.88
2023-03-20T03:25:40.727Z,100114.71
2023-03-20T03:28:14.614Z,100114.16
2023-03-20T03:30:45.546Z,100113.36
2023-03-20T03:33:17.393Z,100107.83
2023-03-20T03:35:46.457Z,100105.28
2023-03-20T03:38:14.602Z,100110.62
2023-03-20T03:40:46.747Z,100111.59
2023-03-20T03:43:19.062Z,100112.41
2023-03-20T03:45:52.567Z,100111.63
2023-03-20T03:48:41.189Z,100108.21
2023-03-20T03:51:11.444Z,100105.80
2023-03-20T03:53:49.209Z,100111.20
2023-03-20T03:56:17.765Z,100117.04
2023-03-20T03:58:48.947Z,100117.96
2023-03-20T04:01:17.344Z,100122.60
2023-03-20T04:03:56.460Z,100118.33
2023-03-20T04:06:25.986Z,100117.63
2023-03-20T04:08:55.308Z,100114.80
2023-03-20T04:11:28.568Z,100112.76
2023-03-20T04:13:57.833Z,100109.58
2023-03-20T04:16:26.390Z,100110.83
2023-03-20T04:18:58.947Z,100113.04
2023-03-20T04:21:28.604Z,100109.66
2023-03-20T04:23:56.483Z,100113.59
2023-03-20T04:26:24.722Z,100120.08
2023-03-20T04:28:53.578Z,100119.27
2023-03-20T04:31:54.460Z,100125.20
2023-03-20T04:34:38.467Z,100123.27
2023-03-20T04:37:18.165Z,100126.88
2023-03-20T04:39:51.999Z,100128.05
2023-03-20T04:42:21.016Z,100123.45
2023-03-20T04:44:49.360Z,100121.88
2023-03-20T04:47:17.623Z,100125.08
2023-03-20T04:49:47.932Z,100126.63
2023-03-20T04:52:17.844Z,100123.27
2023-03-20T04:54:46.838Z,100125.35
2023-03-20T04:57:14.836Z,100126.69
2023-03-20T04:59:43.372Z,100125.86
2023-03-20T05:02:15.126Z,100120.41
2023-03-20T05:04:43.431Z,100119.72
2023-03-20T05:07:12.279Z,100119.42
2023-03-20T05:09:53.611Z,100125.64
2023-03-20T05:12:23.013Z,100124.77
2023-03-20T05:15:20.666Z,100126.32
2023-03-20T05:18:08.336Z,100125.82
2023-03-20T05:21:02.827Z,100122.77
2023-03-20T05:23:51.466Z,100121.02
2023-03-20T05:26:38.328Z,100121.23
2023-03-20T05:29:44.937Z,100121.05
2023-03-20T05:32:28.315Z,100121.56
2023-03-20T05:35:16.461Z,100125.16
2023-03-20T05:37:53.590Z,100125.00
2023-03-20T05:40:32.750Z,100126.46
2023-03-20T05:43:22.668Z,100123.45
2023-03-20T05:46:22.903Z,100128.48
2023-03-20T05:49:26.926Z,100130.53
2023-03-20T05:52:23.062Z,100131.50
2023-03-20T05:55:17.007Z,100129.00
2023-03-20T05:58:03.521Z,100128.02
2023-03-20T06:00:52.372Z,100129.92
2023-03-20T06:03:40.920Z,100129.91
2023-03-20T06:06:13.093Z,100130.90
2023-03-20T06:08:42.084Z,100131.95
2023-03-20T06:11:11.452Z,100127.84
2023-03-20T06:13:39.888Z,100131.09
2023-03-20T06:16:08.890Z,100132.13
2023-03-20T06:18:40.412Z,100137.31
2023-03-20T06:21:11.842Z,100137.41
2023-03-20T06:23:41.044Z,100137.58
2023-03-20T06:26:09.827Z,100142.87
2023-03-20T06:28:49.100Z,100142.31
2023-03-20T06:31:19.417Z,100141.16
2023-03-20T06:33:48.765Z,100141.13
2023-03-20T06:36:16.834Z,100142.63
2023-03-20T06:38:45.496Z,100146.14
2023-03-20T06:41:27.737Z,100144.18
2023-03-20T06:44:04.706Z,100142.78
2023-03-20T06:46:49.142Z,100144.15
2023-03-20T06:49:17.094Z,100145.02
2023-03-20T06:51:48.444Z,100143.95
2023-03-20T06:54:23.136Z,100144.05
2023-03-20T06:56:53.106Z,100148.30
2023-03-20T06:59:22.752Z,100145.00
2023-03-20T07:01:57.424Z,100140.84
2023-03-20T07:04:26.448Z,100136.93
2023-03-20T07:07:01.377Z,100135.64
2023-03-20T07:09:29.538Z,100135.50
2023-03-20T07:11:57.502Z,100134.58
2023-03-20T07:14:29.385Z,100135.65
2023-03-20T07:17:09.657Z,100132.27
2023-03-20T07:19:38.834Z,100132.38
2023-03-20T07:22:08.857Z,100129.75
2023-03-20T07:24:41.486Z,100129.59
2023-03-20T07:27:15.784Z,100132.45
2023-03-20T07:29:44.183Z,100131.66
2023-03-20T07:32:14.687Z,100130.15
2023-03-20T07:34:51.287Z,100129.31
2023-03-20T07:37:20.566Z,100127.45
2023-03-20T07:40:03.172Z,100124.97
2023-03-20T07:42:37.166Z,100124.41
2023-03-20T07:53:11.236Z,100119.17
2023-03-20T07:55:39.741Z,100115.59
2023-03-20T07:58:09.001Z,100111.80
2023-03-20T08:00:37.794Z,100110.61
2023-03-20T08:03:06.062Z,100108.89
2023-03-20T08:05:34.342Z,100105.30
2023-03-20T08:08:03.036Z,100102.52
2023-03-20T08:10:31.203Z,100103.28
2023-03-20T08:12:59.680Z,100101.55
2023-03-20T08:15:29.736Z,100105.92
2023-03-20T08:18:02.478Z,100108.56
2023-03-20T08:20:31.927Z,100104.34
2023-03-20T08:23:01.002Z,100110.48
2023-03-20T08:25:34.819Z,100113.64
2023-03-20T08:28:03.768Z,100113.95
2023-03-20T08:30:32.340Z,100116.38
2023-03-20T08:33:02.338Z,100112.45
2023-03-20T08:35:33.656Z,100111.25
2023-03-20T08:38:08.108Z,100111.77
2023-03-20T08:40:40.322Z,100112.84
2023-03-20T08:43:09.290Z,100111.08
2023-03-20T08:45:38.185Z,100104.25
2023-03-20T08:48:06.677Z,100102.48
2023-03-20T08:50:34.869Z,100105.00
2023-03-20T08:53:02.852Z,100100.92
2023-03-20T08:55:31.013Z,100097.05
2023-03-20T08:57:59.041Z,100091.54
2023-03-20T09:00:27.694Z,100090.96
2023-03-20T09:02:56.233Z,100086.40
2023-03-20T09:05:24.995Z,100087.36
2023-03-20T09:07:53.027Z,100083.58
2023-03-20T09:10:21.038Z,100084.74
2023-03-20T09:12:48.987Z,100078.45
2023-03-20T09:15:16.940Z,100072.95
2023-03-20T09:17:45.584Z,100064.23
2023-03-20T09:20:14.043Z,100067.19
2023-03-20T09:22:43.900Z,100064.69
2023-03-20T09:25:12.408Z,100063.41
2023-03-20T09:27:41.215Z,100057.79
2023-03-20T09:30:09.646Z,100051.48
2023-03-20T09:32:42.037Z,100046.01
2023-03-20T09:35:10.046Z,100041.84
2023-03-20T09:37:38.901Z,100044.73
2023-03-20T09:40:07.551Z,100045.46
2023-03-20T09:42:42.727Z,100047.63
2023-03-20T09:45:12.185Z,100044.23
2023-03-20T09:47:45.236Z,100040.26
2023-03-20T09:50:13.604Z,100047.21
2023-03-20T09:52:46.480Z,100046.27
2023-03-20T09:55:16.035Z,100042.52
2023-03-20T09:57:46.073Z,100039.70
2023-03-20T10:00:21.275Z,100037.00
2023-03-20T10:02:49.704Z,100033.02
2023-03-20T10:05:27.989Z,100027.93
2023-03-20T10:07:58.782Z,100018.77
2023-03-20T10:10:59.543Z,100015.91
2023-03-20T10:13:33.563Z,100014.63
2023-03-20T10:16:05.979Z,100018.30
2023-03-20T10:18:35.466Z,100017.53
2023-03-20T10:21:04.787Z,100013.63
2023-03-20T10:23:41.403Z,100007.64
2023-03-20T10:26:10.889Z,100004.23
2023-03-20T10:28:45.695Z,100002.72
2023-03-20T10:31:19.916Z,99997.11
2023-03-20T10:33:52.249Z,99992.13
2023-03-20T10:36:27.275Z,99991.42
2023-03-20T10:39:06.977Z,99990.90
2023-03-20T10:41:36.644Z,99977.31
2023-03-20T10:44:15.490Z,99974.04
2023-03-20T10:46:44.801Z,99976.13
2023-03-20T10:49:20.468Z,99971.55
2023-03-20T10:51:49.607Z,99966.24
2023-03-20T10:54:21.486Z,99969.59
2023-03-20T10:56:49.795Z,99961.89
2023-03-20T10:59:22.799Z,99957.23
2023-03-20T11:01:53.589Z,99952.54
2023-03-20T11:04:22.347Z,99950.86
2023-03-20T11:07:06.980Z,99953.20
2023-03-20T11:09:36.420Z,99950.40
2023-03-20T11:12:05.012Z,99946.60
2023-03-20T11:14:37.963Z,99937.71
2023-03-20T11:17:06.603Z,99936.27
2023-03-20T11:19:36.185Z,99928.59
2023-03-20T11:22:24.890Z,99926.48
2023-03-20T11:24:54.967Z,99926.52
2023-03-20T11:27:28.086Z,99922.73
2023-03-20T11:30:01.890Z,99919.41
2023-03-20T11:32:31.263Z,99912.52
2023-03-20T11:35:18.416Z,99907.21
2023-03-20T11:37:47.581Z,99904.16
2023-03-20T11:40:23.097Z,99902.23
2023-03-20T11:43:04.274Z,99906.77
2023-03-20T11:45:36.251Z,99902.38
2023-03-20T11:48:05.817Z,99904.80
2023-03-20T11:50:36.373Z,99899.16
2023-03-20T11:53:25.899Z,99894.13
2023-03-20T11:56:17.389Z,99889.51
2023-03-20T11:58:53.546Z,99880.38
2023-03-20T12:01:21.511Z,99875.90
2023-03-20T12:03:57.993Z,99869.60
2023-03-20T12:06:27.464Z,99863.45
2023-03-20T12:09:01.248Z,99862.04
2023-03-20T12:11:33.950Z,99855.50
2023-03-20T12:14:03.671Z,99854.33
2023-03-20T12:16:31.884Z,99848.40
2023-03-20T12:19:04.762Z,99845.73
2023-03-20T12:21:34.925Z,99838.63
2023-03-20T12:24:09.655Z,99834.51
2023-03-20T12:26:44.463Z,99838.53
2023-03-20T12:29:13.045Z,99837.16
2023-03-20T12:31:46.625Z,99839.33
2023-03-20T12:34:20.376Z,99836.95
2023-03-20T12:36:49.558Z,99827.39
2023-03-20T12:39:19.019Z,99828.88
2023-03-20T12:41:58.012Z,99817.86
2023-03-20T12:44:33.364Z,99810.05
2023-03-20T12:47:19.964Z,99812.60
2023-03-20T12:49:56.032Z,99811.23
2023-03-20T12:52:28.410Z,99806.69
2023-03-20T12:55:15.419Z,99806.08
2023-03-20T12:57:55.275Z,99800.67
2023-03-20T13:00:34.162Z,99803.81
2023-03-20T13:03:21.241Z,99798.59
2023-03-20T13:05:55.806Z,99798.77
2023-03-20T13:08:42.779Z,99799.61
2023-03-20T13:11:12.359Z,99797.64
2023-03-20T13:13:49.107Z,99790.29
2023-03-20T13:16:26.490Z,99788.51
2023-03-20T13:19:00.541Z,99788.12
2023-03-20T13:21:33.793Z,99786.74
2023-03-20T13:24:06.228Z,99783.20
2023-03-20T13:26:39.070Z,99783.32
2023-03-20T13:29:27.113Z,99784.36
2023-03-20T13:32:01.758Z,99778.21
2023-03-20T13:34:32.889Z,99780.70
2023-03-20T13:37:12.374Z,99783.23
2023-03-20T13:40:11.645Z,99769.16
2023-03-20T13:42:47.678Z,99772.17
2023-03-20T13:45:35.264Z,99778.07
2023-03-20T13:48:05.730Z,99773.70
2023-03-20T13:50:53.565Z,99771.77
2023-03-20T13:53:29.652Z,99768.04
2023-03-20T13:56:06.528Z,99765.98
2023-03-20T13:58:34.674Z,99756.25
2023-03-20T14:01:08.405Z,99756.25
2023-03-20T14:03:41.633Z,99752.73
2023-03-20T14:06:39.446Z,99748.89
2023-03-20T14:09:31.361Z,99747.16
2023-03-20T14:12:07.473Z,99747.38
2023-03-20T14:14:52.609Z,99741.36
2023-03-20T14:17:23.923Z,99737.90
2023-03-20T14:19:52.298Z,99735.34
2023-03-20T14:22:21.453Z,99728.80
2023-03-20T14:24:56.970Z,99730.84
2023-03-20T14:27:42.909Z,99732.68
2023-03-20T14:30:30.900Z,99731.50
2023-03-20T14:33:05.533Z,99726.14
2023-03-20T14:35:38.231Z,99724.30
2023-03-20T14:38:16.026Z,99721.89
2023-03-20T14:40:47.659Z,99715.80
2023-03-20T14:43:18.270Z,99719.04
2023-03-20T14:45:52.803Z,99721.73
2023-03-20T14:48:26.839Z,99717.90
2023-03-20T14:51:03.746Z,99714.16
2023-03-20T14:53:33.572Z,99718.75
2023-03-20T14:56:02.322Z,99721.57
2023-03-20T14:58:49.771Z,99716.95
2023-03-20T15:01:24.382Z,99709.72
2023-03-20T15:04:03.171Z,99704.19
2023-03-20T15:06:31.418Z,99711.30
2023-03-20T15:09:00.981Z,99709.42
2023-03-20T15:11:29.341Z,99708.12
2023-03-20T15:14:04.610Z,99709.23
2023-03-20T15:16:35.382Z,99707.05
2023-03-20T15:19:09.812Z,99710.38
2023-03-20T15:21:45.026Z,99712.46
2023-03-20T15:24:23.577Z,99709.26
2023-03-20T15:26:53.373Z,99707.98
2023-03-20T15:29:21.433Z,99706.88
2023-03-20T15:32:12.338Z,99703.98
2023-03-20T15:34:45.164Z,99708.55
2023-03-20T15:37:18.093Z,99711.02
2023-03-20T15:39:51.335Z,99712.85
2023-03-20T15:42:21.356Z,99712.92
2023-03-20T15:44:49.838Z,99710.73
2023-03-20T15:47:22.233Z,99713.02
2023-03-20T15:49:52.001Z,99708.14
2023-03-20T15:52:30.746Z,99709.88
2023-03-20T15:55:00.020Z,99716.67
2023-03-20T15:57:33.642Z,99721.75
2023-03-20T16:00:04.816Z,99722.48
2023-03-20T16:02:35.163Z,99727.38
2023-03-20T16:05:03.485Z,99724.64
2023-03-20T16:07:32.910Z,99725.29
2023-03-20T16:10:01.051Z,99722.95
2023-03-20T16:12:29.327Z,99724.09
2023-03-20T16:14:57.543Z,99732.44
2023-03-20T16:17:25.551Z,99733.57
2023-03-20T16:19:54.031Z,99734.05
2023-03-20T16:22:27.615Z,99735.06
2023-03-20T16:24:58.287Z,99732.48
2023-03-20T16:27:33.368Z,99729.52
2023-03-20T16:30:07.245Z,99727.64
2023-03-20T16:32:38.225Z,99731.64
2023-03-20T16:35:20.276Z,99729.27
2023-03-20T16:37:55.571Z,99732.76
2023-03-20T16:40:34.028Z,99729.90
2023-03-20T16:43:06.831Z,99728.84
2023-03-20T16:45:36.627Z,99731.46
2023-03-20T16:48:11.218Z,99733.09
2023-03-20T16:50:53.734Z,99737.26
2023-03-20T16:53:25.697Z,99741.45
2023-03-20T16:55:54.121Z,99739.56
2023-03-20T16:58:24.345Z,99745.51
2023-03-20T17:00:59.959Z,99748.57
2023-03-20T17:03:29.660Z,99752.48
2023-03-20T17:05:59.156Z,99758.86
2023-03-20T17:08:32.079Z,99751.80
2023-03-20T17:11:03.331Z,99755.31
2023-03-20T17:13:31.683Z,99753.80
2023-03-20T17:16:02.128Z,99757.10
2023-03-20T17:18:30.234Z,99757.84
2023-03-20T17:20:58.180Z,99759.88
2023-03-20T17:23:26.997Z,99765.18
2023-03-20T17:25:56.566Z,99764.08
2023-03-20T17:28:28.652Z,99763.00
2023-03-20T17:30:56.924Z,99762.00
2023-03-20T17:33:25.145Z,99765.55
2023-03-20T17:35:54.185Z,99763.65
2023-03-20T17:38:22.357Z,99761.95
2023-03-20T17:40:50.720Z,99762.91
2023-03-20T17:43:19.138Z,99766.88
2023-03-20T17:45:47.704Z,99765.88
2023-03-20T17:48:18.494Z,99765.84
2023-03-20T17:50:47.120Z,99765.23
2023-03-20T17:53:24.211Z,99764.02
2023-03-20T17:55:52.850Z,99758.73
2023-03-20T17:58:22.946Z,99757.77
2023-03-20T18:00:52.809Z,99756.06
2023-03-20T18:03:21.261Z,99755.45
2023-03-20T18:05:51.005Z,99758.33
2023-03-20T18:08:21.454Z,99761.20
2023-03-20T18:10:50.083Z,99755.38
2023-03-20T18:13:21.139Z,99755.56
2023-03-20T18:15:51.928Z,99758.09
2023-03-20T18:18:23.770Z,99756.19
2023-03-20T18:20:55.117Z,99754.70
2023-03-20T18:23:26.094Z,99745.48
2023-03-20T18:25:54.111Z,99745.36
2023-03-20T18:28:24.675Z,99744.95
2023-03-20T18:30:53.316Z,99747.80
2023-03-20T18:33:28.084Z,99746.02
2023-03-20T18:35:56.548Z,99742.47
2023-03-20T18:38:25.922Z,99743.25
2023-03-20T18:40:56.490Z,99745.02
2023-03-20T18:43:25.009Z,99746.33
2023-03-20T18:45:56.766Z,99746.09
2023-03-20T18:48:44.833Z,99747.91
2023-03-20T18:51:13.420Z,99750.95
2023-03-20T18:53:43.118Z,99752.27
2023-03-20T18:56:15.209Z,99749.88
2023-03-20T18:58:43.309Z,99749.06
2023-03-20T19:01:13.021Z,99750.22
2023-03-20T19:03:42.827Z,99749.61
2023-03-20T19:06:16.134Z,99748.62
2023-03-20T19:08:44.679Z,99750.19
2023-03-20T19:11:21.244Z,99755.26
2023-03-20T19:13:52.423Z,99754.48
2023-03-20T19:16:25.767Z,99751.83
2023-03-20T19:18:55.319Z,99750.88
2023-03-20T19:21:26.417Z,99754.00
2023-03-20T19:24:01.951Z,99755.27
2023-03-20T19:26:31.034Z,99752.70
2023-03-20T19:28:59.374Z,99746.45
2023-03-20T19:31:27.901Z,99743.20
2023-03-20T19:33:57.047Z,99738.27
2023-03-20T19:36:31.519Z,99736.44
2023-03-20T19:39:00.663Z,99737.58
2023-03-20T19:41:29.522Z,99733.30
2023-03-20T19:43:57.552Z,99729.54
2023-03-20T19:46:39.596Z,99728.05
2023-03-20T19:49:30.730Z,99727.55
2023-03-20T19:51:59.082Z,99726.10
2023-03-20T19:54:28.743Z,99725.34
2023-03-20T19:56:57.520Z,99721.61
2023-03-20T19:59:32.717Z,99723.45
2023-03-20T20:02:02.109Z,99717.08
2023-03-20T20:04:30.354Z,99714.17
2023-03-20T20:07:40.721Z,99716.35
2023-03-20T20:09:48.068Z,99716.22
2023-03-20T20:12:18.674Z,99716.85
2023-03-20T20:14:48.338Z,99715.77
2023-03-20T20:17:16.484Z,99717.34
2023-03-20T20:19:49.151Z,99717.72
2023-03-20T20:22:25.338Z,99717.55
2023-03-20T20:24:54.701Z,99716.48
2023-03-20T20:27:25.415Z,99713.70
2023-03-20T20:29:53.457Z,99710.81
2023-03-20T20:32:23.898Z,99711.43
2023-03-20T20:40:32.602Z,99706.85
2023-03-20T20:43:02.596Z,99701.51
2023-03-20T20:45:43.691Z,99698.44
2023-03-20T20:48:12.650Z,99694.70
2023-03-20T20:50:42.054Z,99696.27
2023-03-20T20:53:10.505Z,99695.75
2023-03-20T20:55:38.970Z,99697.73
2023-03-20T20:58:09.201Z,99696.33
2023-03-20T21:00:50.688Z,99695.93
2023-03-20T21:03:21.528Z,99696.64
2023-03-20T21:05:52.649Z,99693.44
2023-03-20T21:08:21.241Z,99697.40
2023-03-20T21:10:55.490Z,99704.20
2023-03-20T21:13:24.046Z,99695.02
2023-03-20T21:15:59.224Z,99694.27
2023-03-20T21:18:28.677Z,99693.65
2023-03-20T21:21:23.203Z,99691.71
2023-03-20T21:23:51.320Z,99689.92
2023-03-20T21:26:20.571Z,99683.80
2023-03-20T21:28:48.498Z,99683.02
2023-03-20T21:31:26.770Z,99687.77
2023-03-20T21:33:56.715Z,99685.09
2023-03-20T21:36:24.732Z,99681.08
2023-03-20T21:39:09.480Z,99679.17
2023-03-20T21:41:38.401Z,99681.71
2023-03-20T21:44:07.206Z,99681.52
2023-03-20T21:55:48.222Z,99673.05
2023-03-20T22:04:06.411Z,99671.69
2023-03-20T22:10:03.315Z,99681.09
2023-03-20T22:21:15.991Z,99671.23
2023-03-20T22:24:05.764Z,99667.34
2023-03-20T22:29:39.376Z,99655.27
2023-03-20T22:32:40.162Z,99653.20
2023-03-20T22:35:22.900Z,99654.81
2023-03-20T22:38:08.500Z,99653.46
2023-03-20T22:44:04.800Z,99652.59
2023-03-20T22:46:07.685Z,99651.59
2023-03-20T22:48:39.814Z,99647.63
2023-03-20T22:51:09.325Z,99645.78
2023-03-20T22:53:37.653Z,99647.10
2023-03-20T22:56:07.044Z,99641.02
2023-03-20T22:58:35.312Z,99642.78
2023-03-20T23:01:03.919Z,99637.57
2023-03-20T23:03:41.536Z,99638.42
2023-03-20T23:06:12.413Z,99630.30
2023-03-20T23:08:49.276Z,99631.70
2023-03-20T23:11:22.746Z,99634.12
2023-03-20T23:13:51.674Z,99631.07
2023-03-20T23:16:20.039Z,99629.35
2023-03-20T23:18:47.971Z,99626.64
2023-03-20T23:21:17.321Z,99628.38
2023-03-20T23:23:45.948Z,99625.13
2023-03-20T23:26:15.559Z,99626.34
2023-03-20T23:28:45.191Z,99620.64
2023-03-20T23:31:20.850Z,99619.84
2023-03-20T23:33:49.841Z,99612.08
2023-03-20T23:36:34.502Z,99613.34
2023-03-20T23:39:07.316Z,99616.38
2023-03-20T23:44:26.325Z,99610.92
2023-03-20T23:46:57.773Z,99606.94
2023-03-20T23:49:26.991Z,99605.29
2023-03-20T23:51:55.027Z,99600.29
2023-03-20T23:54:23.517Z,99600.96
2023-03-20T23:56:51.352Z,99601.50
2023-03-20T23:59:22.407Z,99597.80
